sensor_id;sensor_type;location;lat;lon;timestamp;pressure;altitude;pressure_sealevel;temperature;humidity
16613;BME280;8419;52.358;9.752;2023-04-25T00:02:18;100014.00;;;17.31;39.05
16613;BME280;8419;52.358;9.752;2023-04-25T00:05:12;100009.00;;;17.28;39.05
16613;BME280;8419;52.358;9.752;2023-04-25T00:08:00;100003.00;;;17.21;39.12
16613;BME280;8419;52.358;9.752;2023-04-25T00:10:45;100004.00;;;17.19;39.10
16613;BME280;8419;52.358;9.752;2023-04-25T00:13:32;100004.00;;;17.22;39.08
16613;BME280;8419;52.358;9.752;2023-04-25T00:16:18;100006.00;;;17.30;38.95
16613;BME280;8419;52.358;9.752;2023-04-25T00:19:04;100005.00;;;17.31;38.93
16613;BME280;8419;52.358;9.752;2023-04-25T00:21:49;100014.00;;;17.34;38.88
16613;BME280;8419;52.358;9.752;2023-04-25T00:24:35;100013.00;;;17.40;38.83
16613;BME280;8419;52.358;9.752;2023-04-25T00:27:22;100029.00;;;17.44;38.80
16613;BME280;8419;52.358;9.752;2023-04-25T00:30:11;100018.00;;;17.50;38.68
16613;BME280;8419;52.358;9.752;2023-04-25T00:32:57;100006.00;;;17.54;38.62
16613;BME280;8419;52.358;9.752;2023-04-25T00:35:43;100016.00;;;17.52;38.55
16613;BME280;8419;52.358;9.752;2023-04-25T00:38:28;100016.00;;;17.50;38.56
16613;BME280;8419;52.358;9.752;2023-04-25T00:41:14;100020.00;;;17.49;38.51
16613;BME280;8419;52.358;9.752;2023-04-25T00:44:01;100016.00;;;17.47;38.57
16613;BME280;8419;52.358;9.752;2023-04-25T00:46:49;100019.00;;;17.49;38.54
16613;BME280;8419;52.358;9.752;2023-04-25T00:49:35;100016.00;;;17.51;38.55
16613;BME280;8419;52.358;9.752;2023-04-25T00:52:21;100005.00;;;17.55;38.45
16613;BME280;8419;52.358;9.752;2023-04-25T00:55:08;100012.00;;;17.52;38.47
16613;BME280;8419;52.358;9.752;2023-04-25T00:57:53;100004.00;;;17.54;38.42
16613;BME280;8419;52.358;9.752;2023-04-25T01:00:39;100011.00;;;17.55;38.42
16613;BME280;8419;52.358;9.752;2023-04-25T01:03:26;100006.00;;;17.53;38.42
16613;BME280;8419;52.358;9.752;2023-04-25T01:06:15;100000.00;;;17.55;38.40
16613;BME280;8419;52.358;9.752;2023-04-25T01:09:02;100011.00;;;17.58;38.34
16613;BME280;8419;52.358;9.752;2023-04-25T01:11:47;100006.00;;;17.53;38.35
16613;BME280;8419;52.358;9.752;2023-04-25T01:14:33;100009.00;;;17.51;38.40
16613;BME280;8419;52.358;9.752;2023-04-25T01:17:19;99997.00;;;17.51;38.41
16613;BME280;8419;52.358;9.752;2023-04-25T01:20:07;100002.00;;;17.54;38.32
16613;BME280;8419;52.358;9.752;2023-04-25T01:22:54;99999.00;;;17.56;38.39
16613;BME280;8419;52.358;9.752;2023-04-25T01:25:41;100004.00;;;17.51;38.50
16613;BME280;8419;52.358;9.752;2023-04-25T01:28:27;99997.00;;;17.43;38.60
16613;BME280;8419;52.358;9.752;2023-04-25T01:31:13;99995.00;;;17.45;38.60
16613;BME280;8419;52.358;9.752;2023-04-25T01:34:02;99996.00;;;17.43;38.65
16613;BME280;8419;52.358;9.752;2023-04-25T01:36:52;100009.00;;;17.43;38.73
16613;BME280;8419;52.358;9.752;2023-04-25T01:39:38;100004.00;;;17.44;38.75
16613;BME280;8419;52.358;9.752;2023-04-25T01:42:24;100003.00;;;17.42;38.76
16613;BME280;8419;52.358;9.752;2023-04-25T01:45:10;99996.00;;;17.36;38.87
16613;BME280;8419;52.358;9.752;2023-04-25T01:47:57;100000.00;;;17.40;38.84
16613;BME280;8419;52.358;9.752;2023-04-25T01:50:44;100003.00;;;17.44;38.82
16613;BME280;8419;52.358;9.752;2023-04-25T01:53:31;100012.00;;;17.43;38.89
16613;BME280;8419;52.358;9.752;2023-04-25T01:56:20;100004.00;;;17.48;38.80
16613;BME280;8419;52.358;9.752;2023-04-25T01:59:07;100008.00;;;17.50;38.78
16613;BME280;8419;52.358;9.752;2023-04-25T02:01:53;100017.00;;;17.54;38.72
16613;BME280;8419;52.358;9.752;2023-04-25T02:04:38;100015.00;;;17.42;38.94
16613;BME280;8419;52.358;9.752;2023-04-25T02:07:25;100022.00;;;17.43;38.92
16613;BME280;8419;52.358;9.752;2023-04-25T02:10:10;100009.00;;;17.44;38.90
16613;BME280;8419;52.358;9.752;2023-04-25T02:12:59;100029.00;;;17.42;39.01
16613;BME280;8419;52.358;9.752;2023-04-25T02:15:44;100031.00;;;17.42;39.02
16613;BME280;8419;52.358;9.752;2023-04-25T02:18:30;100036.00;;;17.41;39.10
16613;BME280;8419;52.358;9.752;2023-04-25T02:21:16;100043.00;;;17.29;39.47
16613;BME280;8419;52.358;9.752;2023-04-25T02:24:01;100035.00;;;17.18;39.78
16613;BME280;8419;52.358;9.752;2023-04-25T02:26:47;100048.00;;;17.07;39.99
16613;BME280;8419;52.358;9.752;2023-04-25T02:29:35;100048.00;;;17.00;40.14
16613;BME280;8419;52.358;9.752;2023-04-25T02:32:21;100056.00;;;16.89;40.40
16613;BME280;8419;52.358;9.752;2023-04-25T02:35:07;100053.00;;;16.84;40.44
16613;BME280;8419;52.358;9.752;2023-04-25T02:37:53;100060.00;;;16.82;40.42
16613;BME280;8419;52.358;9.752;2023-04-25T02:40:38;100060.00;;;16.82;40.33
16613;BME280;8419;52.358;9.752;2023-04-25T02:43:24;100059.00;;;16.83;40.21
16613;BME280;8419;52.358;9.752;2023-04-25T02:46:09;100066.00;;;16.84;40.12
16613;BME280;8419;52.358;9.752;2023-04-25T02:48:55;100061.00;;;16.84;40.01
16613;BME280;8419;52.358;9.752;2023-04-25T02:51:40;100063.00;;;16.84;39.91
16613;BME280;8419;52.358;9.752;2023-04-25T02:54:25;100065.00;;;16.85;39.89
16613;BME280;8419;52.358;9.752;2023-04-25T02:57:11;100063.00;;;16.87;39.74
16613;BME280;8419;52.358;9.752;2023-04-25T02:59:56;100066.00;;;16.82;39.71
16613;BME280;8419;52.358;9.752;2023-04-25T03:02:42;100078.00;;;16.83;39.76
16613;BME280;8419;52.358;9.752;2023-04-25T03:05:27;100067.00;;;16.86;39.70
16613;BME280;8419;52.358;9.752;2023-04-25T03:08:14;100066.00;;;16.86;39.55
16613;BME280;8419;52.358;9.752;2023-04-25T03:10:59;100065.00;;;16.85;39.53
16613;BME280;8419;52.358;9.752;2023-04-25T03:13:45;100063.00;;;16.85;39.47
16613;BME280;8419;52.358;9.752;2023-04-25T03:16:31;100066.00;;;16.87;39.43
16613;BME280;8419;52.358;9.752;2023-04-25T03:19:16;100063.00;;;16.82;39.45
16613;BME280;8419;52.358;9.752;2023-04-25T03:22:03;100072.00;;;16.78;39.45
16613;BME280;8419;52.358;9.752;2023-04-25T03:24:49;100073.00;;;16.77;39.44
16613;BME280;8419;52.358;9.752;2023-04-25T03:27:34;100075.00;;;16.75;39.43
16613;BME280;8419;52.358;9.752;2023-04-25T03:30:20;100077.00;;;16.76;39.49
16613;BME280;8419;52.358;9.752;2023-04-25T03:33:06;100090.00;;;16.74;39.48
16613;BME280;8419;52.358;9.752;2023-04-25T03:35:52;100088.00;;;16.72;39.54
16613;BME280;8419;52.358;9.752;2023-04-25T03:38:39;100098.00;;;16.73;39.55
16613;BME280;8419;52.358;9.752;2023-04-25T03:41:26;100097.00;;;16.74;39.58
16613;BME280;8419;52.358;9.752;2023-04-25T03:44:12;100097.00;;;16.80;39.53
16613;BME280;8419;52.358;9.752;2023-04-25T03:46:56;100104.00;;;16.84;39.55
16613;BME280;8419;52.358;9.752;2023-04-25T03:49:42;100102.00;;;16.85;39.57
16613;BME280;8419;52.358;9.752;2023-04-25T03:52:27;100107.00;;;16.92;39.44
16613;BME280;8419;52.358;9.752;2023-04-25T03:55:12;100121.00;;;16.90;39.52
16613;BME280;8419;52.358;9.752;2023-04-25T03:57:58;100120.00;;;16.86;39.57
16613;BME280;8419;52.358;9.752;2023-04-25T04:00:44;100119.00;;;16.82;39.60
16613;BME280;8419;52.358;9.752;2023-04-25T04:03:29;100120.00;;;16.78;39.70
16613;BME280;8419;52.358;9.752;2023-04-25T04:06:15;100119.00;;;16.79;39.70
16613;BME280;8419;52.358;9.752;2023-04-25T04:09:00;100120.00;;;16.71;39.85
16613;BME280;8419;52.358;9.752;2023-04-25T04:11:48;100121.00;;;16.74;39.79
16613;BME280;8419;52.358;9.752;2023-04-25T04:14:33;100114.00;;;16.76;39.66
16613;BME280;8419;52.358;9.752;2023-04-25T04:17:18;100118.00;;;16.75;39.67
16613;BME280;8419;52.358;9.752;2023-04-25T04:20:08;100124.00;;;16.80;39.63
16613;BME280;8419;52.358;9.752;2023-04-25T04:22:53;100132.00;;;16.82;39.47
16613;BME280;8419;52.358;9.752;2023-04-25T04:25:40;100136.00;;;16.83;39.41
16613;BME280;8419;52.358;9.752;2023-04-25T04:28:26;100137.00;;;16.84;39.36
16613;BME280;8419;52.358;9.752;2023-04-25T04:31:12;100136.00;;;16.86;39.27
16613;BME280;8419;52.358;9.752;2023-04-25T04:34:01;100140.00;;;16.96;39.12
16613;BME280;8419;52.358;9.752;2023-04-25T04:36:48;100141.00;;;16.92;39.06
16613;BME280;8419;52.358;9.752;2023-04-25T04:39:33;100154.00;;;16.93;39.02
16613;BME280;8419;52.358;9.752;2023-04-25T04:42:18;100150.00;;;16.97;38.92
16613;BME280;8419;52.358;9.752;2023-04-25T04:45:06;100157.00;;;17.02;38.90
16613;BME280;8419;52.358;9.752;2023-04-25T04:47:53;100154.00;;;17.00;38.75
16613;BME280;8419;52.358;9.752;2023-04-25T04:50:40;100161.00;;;16.96;38.85
16613;BME280;8419;52.358;9.752;2023-04-25T04:53:26;100164.00;;;16.98;38.69
16613;BME280;8419;52.358;9.752;2023-04-25T04:56:11;100168.00;;;16.98;38.67
16613;BME280;8419;52.358;9.752;2023-04-25T04:58:57;100160.00;;;17.00;38.57
16613;BME280;8419;52.358;9.752;2023-04-25T05:01:44;100165.00;;;17.00;38.47
16613;BME280;8419;52.358;9.752;2023-04-25T05:04:30;100171.00;;;16.97;38.36
16613;BME280;8419;52.358;9.752;2023-04-25T05:07:16;100185.00;;;16.84;38.33
16613;BME280;8419;52.358;9.752;2023-04-25T05:10:02;100182.00;;;16.91;38.09
16613;BME280;8419;52.358;9.752;2023-04-25T05:12:48;100184.00;;;16.92;38.02
16613;BME280;8419;52.358;9.752;2023-04-25T05:15:33;100191.00;;;16.96;38.02
16613;BME280;8419;52.358;9.752;2023-04-25T05:18:19;100189.00;;;16.90;37.93
16613;BME280;8419;52.358;9.752;2023-04-25T05:21:09;100192.00;;;16.86;37.95
16613;BME280;8419;52.358;9.752;2023-04-25T05:23:56;100195.00;;;16.83;37.91
16613;BME280;8419;52.358;9.752;2023-04-25T05:26:43;100199.00;;;16.79;37.94
16613;BME280;8419;52.358;9.752;2023-04-25T05:29:28;100202.00;;;16.79;37.94
16613;BME280;8419;52.358;9.752;2023-04-25T05:32:13;100196.00;;;16.79;37.88
16613;BME280;8419;52.358;9.752;2023-04-25T05:34:59;100209.00;;;16.85;37.83
16613;BME280;8419;52.358;9.752;2023-04-25T05:37:44;100213.00;;;16.84;37.81
16613;BME280;8419;52.358;9.752;2023-04-25T05:40:30;100219.00;;;16.91;37.73
16613;BME280;8419;52.358;9.752;2023-04-25T05:43:15;100224.00;;;16.98;37.61
16613;BME280;8419;52.358;9.752;2023-04-25T05:46:03;100227.00;;;17.10;37.19
16613;BME280;8419;52.358;9.752;2023-04-25T05:48:49;100218.00;;;17.13;36.95
16613;BME280;8419;52.358;9.752;2023-04-25T05:51:35;100233.00;;;17.09;36.93
16613;BME280;8419;52.358;9.752;2023-04-25T05:54:20;100237.00;;;17.14;36.66
16613;BME280;8419;52.358;9.752;2023-04-25T05:57:06;100247.00;;;17.24;36.35
16613;BME280;8419;52.358;9.752;2023-04-25T05:59:55;100239.00;;;17.25;36.24
16613;BME280;8419;52.358;9.752;2023-04-25T06:02:41;100235.00;;;17.23;35.99
16613;BME280;8419;52.358;9.752;2023-04-25T06:05:30;100235.00;;;17.23;35.81
16613;BME280;8419;52.358;9.752;2023-04-25T06:08:16;100243.00;;;17.34;35.70
16613;BME280;8419;52.358;9.752;2023-04-25T06:11:02;100258.00;;;17.30;35.53
16613;BME280;8419;52.358;9.752;2023-04-25T06:13:47;100255.00;;;17.29;35.35
16613;BME280;8419;52.358;9.752;2023-04-25T06:16:33;100265.00;;;17.25;35.33
16613;BME280;8419;52.358;9.752;2023-04-25T06:19:18;100260.00;;;17.20;35.17
16613;BME280;8419;52.358;9.752;2023-04-25T06:22:03;100264.00;;;17.18;35.19
16613;BME280;8419;52.358;9.752;2023-04-25T06:24:48;100267.00;;;17.26;35.13
16613;BME280;8419;52.358;9.752;2023-04-25T06:27:33;100272.00;;;17.35;35.11
16613;BME280;8419;52.358;9.752;2023-04-25T06:30:19;100273.00;;;17.41;35.03
16613;BME280;8419;52.358;9.752;2023-04-25T06:33:07;100274.00;;;17.38;35.23
16613;BME280;8419;52.358;9.752;2023-04-25T06:35:56;100276.00;;;17.39;35.04
16613;BME280;8419;52.358;9.752;2023-04-25T06:38:43;100279.00;;;17.33;34.90
16613;BME280;8419;52.358;9.752;2023-04-25T06:41:28;100278.00;;;17.17;34.81
16613;BME280;8419;52.358;9.752;2023-04-25T06:44:15;100280.00;;;17.08;34.82
16613;BME280;8419;52.358;9.752;2023-04-25T06:47:00;100276.00;;;17.14;34.69
16613;BME280;8419;52.358;9.752;2023-04-25T06:49:45;100282.00;;;16.95;34.93
16613;BME280;8419;52.358;9.752;2023-04-25T06:52:31;100281.00;;;17.06;34.66
16613;BME280;8419;52.358;9.752;2023-04-25T06:55:20;100282.00;;;17.02;34.62
16613;BME280;8419;52.358;9.752;2023-04-25T06:58:05;100285.00;;;17.08;34.66
16613;BME280;8419;52.358;9.752;2023-04-25T07:00:53;100294.00;;;17.17;34.45
16613;BME280;8419;52.358;9.752;2023-04-25T07:03:38;100300.00;;;17.20;34.33
16613;BME280;8419;52.358;9.752;2023-04-25T07:06:24;100291.00;;;17.25;34.37
16613;BME280;8419;52.358;9.752;2023-04-25T07:09:13;100290.00;;;17.35;34.12
16613;BME280;8419;52.358;9.752;2023-04-25T07:12:03;100297.00;;;17.50;34.10
16613;BME280;8419;52.358;9.752;2023-04-25T07:14:49;100288.00;;;17.63;33.65
16613;BME280;8419;52.358;9.752;2023-04-25T07:17:34;100289.00;;;17.66;33.38
16613;BME280;8419;52.358;9.752;2023-04-25T07:20:19;100288.00;;;17.69;33.44
16613;BME280;8419;52.358;9.752;2023-04-25T07:23:06;100293.00;;;17.80;33.42
16613;BME280;8419;52.358;9.752;2023-04-25T07:25:51;100302.00;;;17.92;33.12
16613;BME280;8419;52.358;9.752;2023-04-25T07:28:37;100310.00;;;17.93;32.93
16613;BME280;8419;52.358;9.752;2023-04-25T07:31:23;100309.00;;;17.89;32.76
16613;BME280;8419;52.358;9.752;2023-04-25T07:34:09;100308.00;;;17.87;32.66
16613;BME280;8419;52.358;9.752;2023-04-25T07:36:57;100311.00;;;17.85;32.59
16613;BME280;8419;52.358;9.752;2023-04-25T07:39:44;100317.00;;;18.03;32.52
16613;BME280;8419;52.358;9.752;2023-04-25T07:42:31;100318.00;;;18.12;32.39
16613;BME280;8419;52.358;9.752;2023-04-25T07:45:20;100328.00;;;18.30;32.17
16613;BME280;8419;52.358;9.752;2023-04-25T07:48:05;100317.00;;;18.30;31.81
16613;BME280;8419;52.358;9.752;2023-04-25T07:50:50;100326.00;;;18.24;31.84
16613;BME280;8419;52.358;9.752;2023-04-25T07:53:37;100318.00;;;18.30;31.81
16613;BME280;8419;52.358;9.752;2023-04-25T07:56:23;100331.00;;;18.54;31.63
16613;BME280;8419;52.358;9.752;2023-04-25T07:59:08;100341.00;;;18.52;31.13
16613;BME280;8419;52.358;9.752;2023-04-25T08:01:54;100335.00;;;18.47;31.03
16613;BME280;8419;52.358;9.752;2023-04-25T08:04:41;100340.00;;;18.51;31.06
16613;BME280;8419;52.358;9.752;2023-04-25T08:07:27;100341.00;;;18.63;30.83
16613;BME280;8419;52.358;9.752;2023-04-25T08:10:13;100344.00;;;18.68;30.72
16613;BME280;8419;52.358;9.752;2023-04-25T08:12:59;100345.00;;;18.53;30.34
16613;BME280;8419;52.358;9.752;2023-04-25T08:19:57;100355.00;;;18.46;30.26
16613;BME280;8419;52.358;9.752;2023-04-25T08:22:52;100357.00;;;18.18;30.52
16613;BME280;8419;52.358;9.752;2023-04-25T08:25:37;100355.00;;;18.06;30.56
16613;BME280;8419;52.358;9.752;2023-04-25T08:28:22;100351.00;;;18.08;30.56
16613;BME280;8419;52.358;9.752;2023-04-25T08:31:08;100361.00;;;18.11;30.42
16613;BME280;8419;52.358;9.752;2023-04-25T08:33:53;100350.00;;;18.14;30.43
16613;BME280;8419;52.358;9.752;2023-04-25T08:40:49;100364.00;;;18.21;29.96
16613;BME280;8419;52.358;9.752;2023-04-25T08:43:36;100372.00;;;18.43;29.54
16613;BME280;8419;52.358;9.752;2023-04-25T08:46:23;100366.00;;;18.22;29.24
16613;BME280;8419;52.358;9.752;2023-04-25T08:49:10;100369.00;;;18.42;29.15
16613;BME280;8419;52.358;9.752;2023-04-25T08:51:59;100378.00;;;18.71;28.73
16613;BME280;8419;52.358;9.752;2023-04-25T08:54:48;100366.00;;;18.94;27.95
16613;BME280;8419;52.358;9.752;2023-04-25T08:57:34;100371.00;;;19.13;27.69
16613;BME280;8419;52.358;9.752;2023-04-25T09:00:20;100385.00;;;19.37;27.54
16613;BME280;8419;52.358;9.752;2023-04-25T09:03:06;100393.00;;;19.43;27.22
16613;BME280;8419;52.358;9.752;2023-04-25T09:05:52;100406.00;;;19.23;27.06
16613;BME280;8419;52.358;9.752;2023-04-25T09:08:37;100390.00;;;19.09;27.20
16613;BME280;8419;52.358;9.752;2023-04-25T09:11:25;100396.00;;;19.12;27.28
16613;BME280;8419;52.358;9.752;2023-04-25T09:14:11;100418.00;;;19.25;27.04
16613;BME280;8419;52.358;9.752;2023-04-25T09:17:07;100405.00;;;19.14;26.93
16613;BME280;8419;52.358;9.752;2023-04-25T09:19:52;100407.00;;;18.99;26.99
16613;BME280;8419;52.358;9.752;2023-04-25T09:22:38;100422.00;;;18.84;27.24
16613;BME280;8419;52.358;9.752;2023-04-25T09:25:24;100427.00;;;18.63;26.71
16613;BME280;8419;52.358;9.752;2023-04-25T09:28:11;100437.00;;;18.36;26.02
16613;BME280;8419;52.358;9.752;2023-04-25T09:30:57;100438.00;;;18.28;25.86
16613;BME280;8419;52.358;9.752;2023-04-25T09:33:42;100430.00;;;18.24;25.66
16613;BME280;8419;52.358;9.752;2023-04-25T09:36:30;100432.00;;;18.28;25.39
16613;BME280;8419;52.358;9.752;2023-04-25T09:39:18;100438.00;;;18.35;25.32
16613;BME280;8419;52.358;9.752;2023-04-25T09:42:07;100427.00;;;18.41;25.60
16613;BME280;8419;52.358;9.752;2023-04-25T09:44:55;100433.00;;;18.72;25.60
16613;BME280;8419;52.358;9.752;2023-04-25T09:47:40;100430.00;;;18.84;25.32
16613;BME280;8419;52.358;9.752;2023-04-25T09:50:29;100441.00;;;18.94;25.05
16613;BME280;8419;52.358;9.752;2023-04-25T09:53:15;100439.00;;;18.85;24.46
16613;BME280;8419;52.358;9.752;2023-04-25T09:56:02;100423.00;;;18.82;24.17
16613;BME280;8419;52.358;9.752;2023-04-25T09:58:50;100429.00;;;18.93;24.48
16613;BME280;8419;52.358;9.752;2023-04-25T10:01:40;100442.00;;;19.30;24.24
16613;BME280;8419;52.358;9.752;2023-04-25T10:04:28;100448.00;;;19.54;23.90
16613;BME280;8419;52.358;9.752;2023-04-25T10:07:18;100431.00;;;19.58;23.48
16613;BME280;8419;52.358;9.752;2023-04-25T10:10:06;100445.00;;;19.76;23.33
16613;BME280;8419;52.358;9.752;2023-04-25T10:12:54;100439.00;;;20.02;23.15
16613;BME280;8419;52.358;9.752;2023-04-25T10:15:39;100440.00;;;19.99;23.20
16613;BME280;8419;52.358;9.752;2023-04-25T10:18:26;100459.00;;;20.01;23.48
16613;BME280;8419;52.358;9.752;2023-04-25T10:21:13;100463.00;;;19.91;23.42
16613;BME280;8419;52.358;9.752;2023-04-25T10:24:00;100451.00;;;19.90;23.37
16613;BME280;8419;52.358;9.752;2023-04-25T10:26:48;100468.00;;;19.77;23.48
16613;BME280;8419;52.358;9.752;2023-04-25T10:29:35;100470.00;;;19.66;23.84
16613;BME280;8419;52.358;9.752;2023-04-25T10:32:20;100468.00;;;19.57;24.08
16613;BME280;8419;52.358;9.752;2023-04-25T10:35:15;100474.00;;;19.59;24.19
16613;BME280;8419;52.358;9.752;2023-04-25T10:38:04;100480.00;;;19.67;24.18
16613;BME280;8419;52.358;9.752;2023-04-25T10:41:05;100482.00;;;19.68;24.41
16613;BME280;8419;52.358;9.752;2023-04-25T10:43:59;100478.00;;;19.72;24.73
16613;BME280;8419;52.358;9.752;2023-04-25T10:46:47;100483.00;;;19.96;24.64
16613;BME280;8419;52.358;9.752;2023-04-25T10:49:34;100487.00;;;20.05;24.56
16613;BME280;8419;52.358;9.752;2023-04-25T10:52:25;100488.00;;;20.18;24.29
16613;BME280;8419;52.358;9.752;2023-04-25T10:55:13;100491.00;;;20.35;24.25
16613;BME280;8419;52.358;9.752;2023-04-25T10:57:58;100486.00;;;20.49;24.13
16613;BME280;8419;52.358;9.752;2023-04-25T11:00:45;100491.00;;;20.39;24.06
16613;BME280;8419;52.358;9.752;2023-04-25T11:03:31;100480.00;;;20.36;24.10
16613;BME280;8419;52.358;9.752;2023-04-25T11:06:23;100485.00;;;20.33;24.20
16613;BME280;8419;52.358;9.752;2023-04-25T11:09:18;100480.00;;;20.17;24.31
16613;BME280;8419;52.358;9.752;2023-04-25T11:12:04;100498.00;;;19.91;24.06
16613;BME280;8419;52.358;9.752;2023-04-25T11:14:50;100495.00;;;19.64;24.19
16613;BME280;8419;52.358;9.752;2023-04-25T11:17:35;100490.00;;;19.47;24.64
16613;BME280;8419;52.358;9.752;2023-04-25T11:20:20;100494.00;;;19.66;24.59
16613;BME280;8419;52.358;9.752;2023-04-25T11:23:05;100486.00;;;19.79;24.50
16613;BME280;8419;52.358;9.752;2023-04-25T11:25:51;100498.00;;;19.99;24.36
16613;BME280;8419;52.358;9.752;2023-04-25T11:28:37;100494.00;;;20.38;23.82
16613;BME280;8419;52.358;9.752;2023-04-25T11:31:25;100496.00;;;20.62;23.57
16613;BME280;8419;52.358;9.752;2023-04-25T11:34:10;100484.00;;;20.50;23.67
16613;BME280;8419;52.358;9.752;2023-04-25T11:36:55;100488.00;;;20.22;24.03
16613;BME280;8419;52.358;9.752;2023-04-25T11:39:45;100501.00;;;20.01;24.20
16613;BME280;8419;52.358;9.752;2023-04-25T11:42:31;100511.00;;;19.74;24.58
16613;BME280;8419;52.358;9.752;2023-04-25T11:45:16;100519.00;;;19.62;24.73
16613;BME280;8419;52.358;9.752;2023-04-25T11:48:03;100530.00;;;19.36;25.08
16613;BME280;8419;52.358;9.752;2023-04-25T11:50:49;100537.00;;;19.24;25.59
16613;BME280;8419;52.358;9.752;2023-04-25T11:53:35;100542.00;;;19.13;26.11
16613;BME280;8419;52.358;9.752;2023-04-25T11:56:21;100532.00;;;19.15;26.41
16613;BME280;8419;52.358;9.752;2023-04-25T11:59:07;100539.00;;;19.19;26.62
16613;BME280;8419;52.358;9.752;2023-04-25T12:01:55;100530.00;;;19.23;26.63
16613;BME280;8419;52.358;9.752;2023-04-25T12:04:42;100526.00;;;19.32;26.70
16613;BME280;8419;52.358;9.752;2023-04-25T12:07:29;100528.00;;;19.46;26.63
16613;BME280;8419;52.358;9.752;2023-04-25T12:10:17;100534.00;;;19.72;26.40
16613;BME280;8419;52.358;9.752;2023-04-25T12:13:20;100538.00;;;19.94;25.94
16613;BME280;8419;52.358;9.752;2023-04-25T12:16:06;100550.00;;;20.04;25.70
16613;BME280;8419;52.358;9.752;2023-04-25T12:18:52;100550.00;;;19.98;25.49
16613;BME280;8419;52.358;9.752;2023-04-25T12:21:38;100541.00;;;20.34;25.33
16613;BME280;8419;52.358;9.752;2023-04-25T12:24:24;100558.00;;;20.83;24.67
16613;BME280;8419;52.358;9.752;2023-04-25T12:27:10;100538.00;;;21.22;23.57
16613;BME280;8419;52.358;9.752;2023-04-25T12:30:00;100535.00;;;21.70;22.82
16613;BME280;8419;52.358;9.752;2023-04-25T12:32:48;100540.00;;;22.27;22.09
16613;BME280;8419;52.358;9.752;2023-04-25T12:35:36;100546.00;;;23.30;21.46
16613;BME280;8419;52.358;9.752;2023-04-25T12:38:29;100551.00;;;23.95;20.35
16613;BME280;8419;52.358;9.752;2023-04-25T12:41:14;100551.00;;;23.95;20.05
16613;BME280;8419;52.358;9.752;2023-04-25T12:44:00;100545.00;;;23.23;20.76
16613;BME280;8419;52.358;9.752;2023-04-25T12:46:45;100572.00;;;22.41;21.33
16613;BME280;8419;52.358;9.752;2023-04-25T12:49:32;100577.00;;;21.68;22.12
16613;BME280;8419;52.358;9.752;2023-04-25T12:52:18;100574.00;;;21.08;22.75
16613;BME280;8419;52.358;9.752;2023-04-25T12:55:05;100572.00;;;20.78;22.83
16613;BME280;8419;52.358;9.752;2023-04-25T12:57:51;100574.00;;;20.44;23.01
16613;BME280;8419;52.358;9.752;2023-04-25T13:00:38;100576.00;;;20.26;23.08
16613;BME280;8419;52.358;9.752;2023-04-25T13:03:24;100571.00;;;20.01;23.02
16613;BME280;8419;52.358;9.752;2023-04-25T13:06:09;100575.00;;;19.77;23.06
16613;BME280;8419;52.358;9.752;2023-04-25T13:08:55;100583.00;;;19.47;23.36
16613;BME280;8419;52.358;9.752;2023-04-25T13:11:40;100573.00;;;19.27;23.82
16613;BME280;8419;52.358;9.752;2023-04-25T13:14:26;100587.00;;;19.06;24.39
16613;BME280;8419;52.358;9.752;2023-04-25T13:17:11;100588.00;;;18.78;25.21
16613;BME280;8419;52.358;9.752;2023-04-25T13:19:56;100594.00;;;18.35;26.35
16613;BME280;8419;52.358;9.752;2023-04-25T13:22:42;100597.00;;;18.16;27.09
16613;BME280;8419;52.358;9.752;2023-04-25T13:25:30;100605.00;;;17.91;27.87
16613;BME280;8419;52.358;9.752;2023-04-25T13:28:15;100598.00;;;17.55;29.29
16613;BME280;8419;52.358;9.752;2023-04-25T13:31:00;100596.00;;;17.28;30.22
16613;BME280;8419;52.358;9.752;2023-04-25T13:33:47;100597.00;;;17.07;30.88
16613;BME280;8419;52.358;9.752;2023-04-25T13:36:32;100595.00;;;17.11;30.96
16613;BME280;8419;52.358;9.752;2023-04-25T13:39:17;100602.00;;;17.32;30.95
16613;BME280;8419;52.358;9.752;2023-04-25T13:42:05;100600.00;;;17.70;30.42
16613;BME280;8419;52.358;9.752;2023-04-25T13:44:50;100595.00;;;18.14;29.97
16613;BME280;8419;52.358;9.752;2023-04-25T13:47:35;100598.00;;;18.79;29.35
16613;BME280;8419;52.358;9.752;2023-04-25T13:50:22;100599.00;;;20.09;28.00
16613;BME280;8419;52.358;9.752;2023-04-25T13:53:08;100583.00;;;21.61;26.28
16613;BME280;8419;52.358;9.752;2023-04-25T13:55:54;100591.00;;;22.85;24.61
16613;BME280;8419;52.358;9.752;2023-04-25T13:58:39;100592.00;;;23.13;24.06
16613;BME280;8419;52.358;9.752;2023-04-25T14:01:25;100595.00;;;22.11;24.72
16613;BME280;8419;52.358;9.752;2023-04-25T14:04:12;100608.00;;;21.19;25.63
16613;BME280;8419;52.358;9.752;2023-04-25T14:06:57;100609.00;;;20.24;26.47
16613;BME280;8419;52.358;9.752;2023-04-25T14:09:42;100620.00;;;19.55;27.36
16613;BME280;8419;52.358;9.752;2023-04-25T14:12:29;100622.00;;;19.26;28.26
16613;BME280;8419;52.358;9.752;2023-04-25T14:15:14;100610.00;;;18.93;29.28
16613;BME280;8419;52.358;9.752;2023-04-25T14:18:01;100612.00;;;18.94;29.78
16613;BME280;8419;52.358;9.752;2023-04-25T14:20:47;100612.00;;;18.88;30.13
16613;BME280;8419;52.358;9.752;2023-04-25T14:23:34;100605.00;;;19.34;29.84
16613;BME280;8419;52.358;9.752;2023-04-25T14:26:20;100602.00;;;19.68;29.86
16613;BME280;8419;52.358;9.752;2023-04-25T14:29:07;100602.00;;;20.23;29.38
16613;BME280;8419;52.358;9.752;2023-04-25T14:31:53;100601.00;;;20.67;29.23
16613;BME280;8419;52.358;9.752;2023-04-25T14:34:39;100598.00;;;21.58;28.36
16613;BME280;8419;52.358;9.752;2023-04-25T14:37:25;100605.00;;;22.98;26.92
16613;BME280;8419;52.358;9.752;2023-04-25T14:40:11;100590.00;;;23.38;26.24
16613;BME280;8419;52.358;9.752;2023-04-25T14:42:58;100594.00;;;24.11;25.16
16613;BME280;8419;52.358;9.752;2023-04-25T14:45:46;100607.00;;;25.13;24.20
16613;BME280;8419;52.358;9.752;2023-04-25T14:48:33;100594.00;;;26.28;23.20
16613;BME280;8419;52.358;9.752;2023-04-25T14:51:19;100597.00;;;26.99;22.08